sensor_id;sensor_type;location;lat;lon;timestamp;P1;durP1;ratioP1;P2;durP2;ratioP2
22543;SDS011;11438;52.044;8.716;2023-04-15T00:01:17;3.83;;;2.63;;
22543;SDS011;11438;52.044;8.716;2023-04-15T00:03:43;5.45;;;2.85;;
22543;SDS011;11438;52.044;8.716;2023-04-15T00:06:10;3.75;;;2.72;;
22543;SDS011;11438;52.044;8.716;2023-04-15T00:08:35;5.90;;;2.67;;
22543;SDS011;11438;52.044;8.716;2023-04-15T00:11:01;4.35;;;2.67;;
22543;SDS011;11438;52.044;8.716;2023-04-15T00:13:29;4.70;;;2.50;;
22543;SDS011;11438;52.044;8.716;2023-04-15T00:16:01;3.55;;;2.33;;
22543;SDS011;11438;52.044;8.716;2023-04-15T00:18:27;4.35;;;2.78;;
22543;SDS011;11438;52.044;8.716;2023-04-15T00:20:53;3.70;;;2.83;;
22543;SDS011;11438;52.044;8.716;2023-04-15T00:23:19;4.43;;;2.60;;
22543;SDS011;11438;52.044;8.716;2023-04-15T00:25:45;4.32;;;2.95;;
22543;SDS011;11438;52.044;8.716;2023-04-15T00:28:11;4.95;;;2.55;;
22543;SDS011;11438;52.044;8.716;2023-04-15T00:30:36;3.10;;;2.50;;
22543;SDS011;11438;52.044;8.716;2023-04-15T00:33:02;4.40;;;2.70;;
22543;SDS011;11438;52.044;8.716;2023-04-15T00:35:28;4.70;;;2.70;;
22543;SDS011;11438;52.044;8.716;2023-04-15T00:37:56;3.83;;;2.72;;
22543;SDS011;11438;52.044;8.716;2023-04-15T00:40:22;6.53;;;2.97;;
22543;SDS011;11438;52.044;8.716;2023-04-15T00:42:48;4.45;;;3.22;;
22543;SDS011;11438;52.044;8.716;2023-04-15T00:45:14;4.65;;;3.30;;
22543;SDS011;11438;52.044;8.716;2023-04-15T00:47:40;5.10;;;3.58;;
22543;SDS011;11438;52.044;8.716;2023-04-15T00:50:07;6.53;;;3.83;;
22543;SDS011;11438;52.044;8.716;2023-04-15T00:52:33;4.88;;;3.88;;
22543;SDS011;11438;52.044;8.716;2023-04-15T00:54:59;5.20;;;3.90;;
22543;SDS011;11438;52.044;8.716;2023-04-15T00:57:25;5.25;;;3.70;;
22543;SDS011;11438;52.044;8.716;2023-04-15T00:59:51;6.28;;;4.10;;
22543;SDS011;11438;52.044;8.716;2023-04-15T01:02:17;5.70;;;4.18;;
22543;SDS011;11438;52.044;8.716;2023-04-15T01:04:43;5.75;;;4.30;;
22543;SDS011;11438;52.044;8.716;2023-04-15T01:07:09;5.90;;;4.03;;
22543;SDS011;11438;52.044;8.716;2023-04-15T01:09:34;6.30;;;4.32;;
22543;SDS011;11438;52.044;8.716;2023-04-15T01:12:00;5.38;;;4.22;;
22543;SDS011;11438;52.044;8.716;2023-04-15T01:14:26;6.25;;;4.28;;
22543;SDS011;11438;52.044;8.716;2023-04-15T01:16:53;5.05;;;4.22;;
22543;SDS011;11438;52.044;8.716;2023-04-15T01:19:18;5.53;;;4.50;;
22543;SDS011;11438;52.044;8.716;2023-04-15T01:21:44;5.45;;;4.10;;
22543;SDS011;11438;52.044;8.716;2023-04-15T01:24:10;6.82;;;4.72;;
22543;SDS011;11438;52.044;8.716;2023-04-15T01:26:37;6.93;;;4.30;;
22543;SDS011;11438;52.044;8.716;2023-04-15T01:29:03;6.68;;;4.18;;
22543;SDS011;11438;52.044;8.716;2023-04-15T01:31:28;7.57;;;4.63;;
22543;SDS011;11438;52.044;8.716;2023-04-15T01:33:54;6.90;;;4.32;;
22543;SDS011;11438;52.044;8.716;2023-04-15T01:36:23;7.53;;;4.70;;
22543;SDS011;11438;52.044;8.716;2023-04-15T01:38:48;6.80;;;4.90;;
22543;SDS011;11438;52.044;8.716;2023-04-15T01:41:15;6.22;;;4.57;;
22543;SDS011;11438;52.044;8.716;2023-04-15T01:43:41;7.05;;;4.90;;
22543;SDS011;11438;52.044;8.716;2023-04-15T01:46:06;6.40;;;4.32;;
22543;SDS011;11438;52.044;8.716;2023-04-15T01:48:32;5.68;;;4.22;;
22543;SDS011;11438;52.044;8.716;2023-04-15T01:50:57;6.55;;;4.45;;
22543;SDS011;11438;52.044;8.716;2023-04-15T01:53:24;6.05;;;4.05;;
22543;SDS011;11438;52.044;8.716;2023-04-15T01:55:50;6.30;;;4.25;;
22543;SDS011;11438;52.044;8.716;2023-04-15T01:58:16;5.22;;;4.13;;
22543;SDS011;11438;52.044;8.716;2023-04-15T02:00:42;6.13;;;4.00;;
22543;SDS011;11438;52.044;8.716;2023-04-15T02:03:07;5.55;;;3.70;;
22543;SDS011;11438;52.044;8.716;2023-04-15T02:05:33;5.88;;;4.15;;
22543;SDS011;11438;52.044;8.716;2023-04-15T02:07:59;5.22;;;4.03;;
22543;SDS011;11438;52.044;8.716;2023-04-15T02:10:25;5.72;;;4.30;;
22543;SDS011;11438;52.044;8.716;2023-04-15T02:12:51;5.72;;;3.90;;
22543;SDS011;11438;52.044;8.716;2023-04-15T02:15:17;7.13;;;3.97;;
22543;SDS011;11438;52.044;8.716;2023-04-15T02:17:43;5.95;;;3.95;;
22543;SDS011;11438;52.044;8.716;2023-04-15T02:20:10;7.20;;;4.35;;
22543;SDS011;11438;52.044;8.716;2023-04-15T02:22:36;6.93;;;4.38;;
22543;SDS011;11438;52.044;8.716;2023-04-15T02:25:01;6.68;;;4.05;;
22543;SDS011;11438;52.044;8.716;2023-04-15T02:27:27;7.93;;;4.60;;
22543;SDS011;11438;52.044;8.716;2023-04-15T02:29:52;5.95;;;4.18;;
22543;SDS011;11438;52.044;8.716;2023-04-15T02:32:18;7.05;;;4.32;;
22543;SDS011;11438;52.044;8.716;2023-04-15T02:34:44;5.88;;;3.88;;
22543;SDS011;11438;52.044;8.716;2023-04-15T02:37:11;5.20;;;3.90;;
22543;SDS011;11438;52.044;8.716;2023-04-15T02:39:37;7.13;;;4.10;;
22543;SDS011;11438;52.044;8.716;2023-04-15T02:42:03;5.93;;;4.00;;
22543;SDS011;11438;52.044;8.716;2023-04-15T02:44:30;6.72;;;4.82;;
22543;SDS011;11438;52.044;8.716;2023-04-15T02:46:56;8.65;;;4.82;;
22543;SDS011;11438;52.044;8.716;2023-04-15T02:49:22;7.93;;;5.22;;
22543;SDS011;11438;52.044;8.716;2023-04-15T02:51:49;8.95;;;4.68;;
22543;SDS011;11438;52.044;8.716;2023-04-15T02:54:18;6.20;;;4.30;;
22543;SDS011;11438;52.044;8.716;2023-04-15T02:56:44;8.52;;;4.45;;
22543;SDS011;11438;52.044;8.716;2023-04-15T02:59:11;8.25;;;4.60;;
22543;SDS011;11438;52.044;8.716;2023-04-15T03:01:37;7.13;;;4.45;;
22543;SDS011;11438;52.044;8.716;2023-04-15T03:04:02;6.38;;;4.47;;
22543;SDS011;11438;52.044;8.716;2023-04-15T03:06:28;6.68;;;4.63;;
22543;SDS011;11438;52.044;8.716;2023-04-15T03:08:53;6.70;;;4.95;;
22543;SDS011;11438;52.044;8.716;2023-04-15T03:11:20;8.05;;;5.53;;
22543;SDS011;11438;52.044;8.716;2023-04-15T03:13:46;6.50;;;4.60;;
22543;SDS011;11438;52.044;8.716;2023-04-15T03:16:12;8.57;;;4.93;;
22543;SDS011;11438;52.044;8.716;2023-04-15T03:18:37;6.93;;;5.00;;
22543;SDS011;11438;52.044;8.716;2023-04-15T03:21:03;7.38;;;4.90;;
22543;SDS011;11438;52.044;8.716;2023-04-15T03:23:29;5.95;;;4.70;;
22543;SDS011;11438;52.044;8.716;2023-04-15T03:25:56;5.45;;;4.25;;
22543;SDS011;11438;52.044;8.716;2023-04-15T03:28:22;8.05;;;5.38;;
22543;SDS011;11438;52.044;8.716;2023-04-15T03:30:48;9.18;;;5.30;;
22543;SDS011;11438;52.044;8.716;2023-04-15T03:33:13;7.78;;;4.55;;
22543;SDS011;11438;52.044;8.716;2023-04-15T03:35:39;8.32;;;5.05;;
22543;SDS011;11438;52.044;8.716;2023-04-15T03:38:05;9.05;;;5.22;;
22543;SDS011;11438;52.044;8.716;2023-04-15T03:40:30;6.60;;;4.68;;
22543;SDS011;11438;52.044;8.716;2023-04-15T03:42:56;6.57;;;4.88;;
22543;SDS011;11438;52.044;8.716;2023-04-15T03:45:21;7.38;;;4.75;;
22543;SDS011;11438;52.044;8.716;2023-04-15T03:47:47;7.13;;;4.68;;
22543;SDS011;11438;52.044;8.716;2023-04-15T03:50:13;7.28;;;4.97;;
22543;SDS011;11438;52.044;8.716;2023-04-15T03:52:39;8.43;;;5.13;;
22543;SDS011;11438;52.044;8.716;2023-04-15T03:55:05;7.57;;;5.03;;
22543;SDS011;11438;52.044;8.716;2023-04-15T03:57:30;7.28;;;4.80;;
22543;SDS011;11438;52.044;8.716;2023-04-15T03:59:56;6.20;;;4.70;;
22543;SDS011;11438;52.044;8.716;2023-04-15T04:02:22;6.47;;;4.50;;
22543;SDS011;11438;52.044;8.716;2023-04-15T04:04:47;6.32;;;4.80;;
22543;SDS011;11438;52.044;8.716;2023-04-15T04:07:16;6.68;;;4.80;;
22543;SDS011;11438;52.044;8.716;2023-04-15T04:09:42;6.43;;;4.43;;
22543;SDS011;11438;52.044;8.716;2023-04-15T04:12:07;6.80;;;4.57;;
22543;SDS011;11438;52.044;8.716;2023-04-15T04:14:33;7.32;;;4.55;;
22543;SDS011;11438;52.044;8.716;2023-04-15T04:16:58;8.05;;;4.60;;
22543;SDS011;11438;52.044;8.716;2023-04-15T04:19:24;7.72;;;5.30;;
22543;SDS011;11438;52.044;8.716;2023-04-15T04:21:50;7.43;;;4.63;;
22543;SDS011;11438;52.044;8.716;2023-04-15T04:24:16;6.70;;;4.93;;
22543;SDS011;11438;52.044;8.716;2023-04-15T04:26:41;6.80;;;4.85;;
22543;SDS011;11438;52.044;8.716;2023-04-15T04:29:07;6.05;;;4.50;;
22543;SDS011;11438;52.044;8.716;2023-04-15T04:31:32;6.45;;;4.78;;
22543;SDS011;11438;52.044;8.716;2023-04-15T04:33:57;6.32;;;4.43;;
22543;SDS011;11438;52.044;8.716;2023-04-15T04:36:23;6.05;;;4.57;;
22543;SDS011;11438;52.044;8.716;2023-04-15T04:38:48;7.40;;;5.28;;
22543;SDS011;11438;52.044;8.716;2023-04-15T04:41:14;6.50;;;4.82;;
22543;SDS011;11438;52.044;8.716;2023-04-15T04:43:39;6.80;;;4.63;;
22543;SDS011;11438;52.044;8.716;2023-04-15T04:46:05;6.78;;;4.65;;
22543;SDS011;11438;52.044;8.716;2023-04-15T04:48:31;6.90;;;4.90;;
22543;SDS011;11438;52.044;8.716;2023-04-15T04:50:57;8.35;;;5.30;;
22543;SDS011;11438;52.044;8.716;2023-04-15T04:53:23;6.68;;;4.45;;
22543;SDS011;11438;52.044;8.716;2023-04-15T04:55:48;6.65;;;4.85;;
22543;SDS011;11438;52.044;8.716;2023-04-15T04:58:14;7.90;;;5.15;;
22543;SDS011;11438;52.044;8.716;2023-04-15T05:00:39;7.90;;;5.40;;
22543;SDS011;11438;52.044;8.716;2023-04-15T05:03:06;8.32;;;5.60;;
22543;SDS011;11438;52.044;8.716;2023-04-15T05:05:31;9.52;;;5.82;;
22543;SDS011;11438;52.044;8.716;2023-04-15T05:07:57;8.07;;;5.38;;
22543;SDS011;11438;52.044;8.716;2023-04-15T05:10:22;8.13;;;5.50;;
22543;SDS011;11438;52.044;8.716;2023-04-15T05:12:48;7.72;;;5.72;;
22543;SDS011;11438;52.044;8.716;2023-04-15T05:15:14;7.50;;;5.97;;
22543;SDS011;11438;52.044;8.716;2023-04-15T05:17:40;8.88;;;6.07;;
22543;SDS011;11438;52.044;8.716;2023-04-15T05:20:05;8.50;;;6.15;;
22543;SDS011;11438;52.044;8.716;2023-04-15T05:22:31;7.75;;;5.32;;
22543;SDS011;11438;52.044;8.716;2023-04-15T05:24:57;9.50;;;6.43;;
22543;SDS011;11438;52.044;8.716;2023-04-15T05:27:22;8.60;;;6.18;;
22543;SDS011;11438;52.044;8.716;2023-04-15T05:29:48;9.57;;;6.18;;
22543;SDS011;11438;52.044;8.716;2023-04-15T05:32:14;10.07;;;6.28;;
22543;SDS011;11438;52.044;8.716;2023-04-15T05:34:40;10.88;;;6.85;;
22543;SDS011;11438;52.044;8.716;2023-04-15T05:37:05;11.13;;;6.57;;
22543;SDS011;11438;52.044;8.716;2023-04-15T05:39:31;9.93;;;6.75;;
22543;SDS011;11438;52.044;8.716;2023-04-15T05:41:57;10.48;;;6.43;;
22543;SDS011;11438;52.044;8.716;2023-04-15T05:44:23;11.52;;;7.18;;
22543;SDS011;11438;52.044;8.716;2023-04-15T05:46:49;11.18;;;7.80;;
22543;SDS011;11438;52.044;8.716;2023-04-15T05:49:15;11.25;;;7.78;;
22543;SDS011;11438;52.044;8.716;2023-04-15T05:51:40;10.27;;;7.47;;
22543;SDS011;11438;52.044;8.716;2023-04-15T05:54:06;10.40;;;7.50;;
22543;SDS011;11438;52.044;8.716;2023-04-15T05:56:31;11.27;;;8.20;;
22543;SDS011;11438;52.044;8.716;2023-04-15T05:58:57;11.35;;;7.78;;
22543;SDS011;11438;52.044;8.716;2023-04-15T06:01:22;13.70;;;7.72;;
22543;SDS011;11438;52.044;8.716;2023-04-15T06:03:48;11.05;;;7.82;;
22543;SDS011;11438;52.044;8.716;2023-04-15T06:06:14;10.73;;;7.57;;
22543;SDS011;11438;52.044;8.716;2023-04-15T06:08:39;11.90;;;8.40;;
22543;SDS011;11438;52.044;8.716;2023-04-15T06:11:05;13.80;;;8.57;;
22543;SDS011;11438;52.044;8.716;2023-04-15T06:13:31;13.77;;;8.23;;
22543;SDS011;11438;52.044;8.716;2023-04-15T06:15:57;11.23;;;7.80;;
22543;SDS011;11438;52.044;8.716;2023-04-15T06:18:22;13.20;;;8.38;;
22543;SDS011;11438;52.044;8.716;2023-04-15T06:20:48;12.90;;;8.63;;
22543;SDS011;11438;52.044;8.716;2023-04-15T06:23:13;11.60;;;8.05;;
22543;SDS011;11438;52.044;8.716;2023-04-15T06:25:39;12.32;;;8.00;;
22543;SDS011;11438;52.044;8.716;2023-04-15T06:28:05;12.98;;;9.25;;
22543;SDS011;11438;52.044;8.716;2023-04-15T06:30:30;13.80;;;9.27;;
22543;SDS011;11438;52.044;8.716;2023-04-15T06:32:56;12.82;;;9.10;;
22543;SDS011;11438;52.044;8.716;2023-04-15T06:35:21;12.30;;;8.30;;
22543;SDS011;11438;52.044;8.716;2023-04-15T06:37:47;12.55;;;8.80;;
22543;SDS011;11438;52.044;8.716;2023-04-15T06:40:12;12.30;;;8.38;;
22543;SDS011;11438;52.044;8.716;2023-04-15T06:42:38;12.35;;;8.93;;
22543;SDS011;11438;52.044;8.716;2023-04-15T06:45:04;13.68;;;9.10;;
22543;SDS011;11438;52.044;8.716;2023-04-15T06:47:30;13.40;;;8.98;;
22543;SDS011;11438;52.044;8.716;2023-04-15T06:49:56;13.07;;;9.10;;
22543;SDS011;11438;52.044;8.716;2023-04-15T06:52:21;12.88;;;8.82;;
22543;SDS011;11438;52.044;8.716;2023-04-15T06:54:47;15.55;;;9.02;;
22543;SDS011;11438;52.044;8.716;2023-04-15T06:57:12;16.17;;;10.93;;
22543;SDS011;11438;52.044;8.716;2023-04-15T06:59:38;12.68;;;8.75;;
22543;SDS011;11438;52.044;8.716;2023-04-15T07:02:03;15.02;;;9.75;;
22543;SDS011;11438;52.044;8.716;2023-04-15T07:04:29;14.63;;;9.13;;
22543;SDS011;11438;52.044;8.716;2023-04-15T07:06:54;13.65;;;9.18;;
22543;SDS011;11438;52.044;8.716;2023-04-15T07:09:21;13.95;;;8.95;;
22543;SDS011;11438;52.044;8.716;2023-04-15T07:11:47;14.55;;;8.85;;
22543;SDS011;11438;52.044;8.716;2023-04-15T07:14:13;14.02;;;9.25;;
22543;SDS011;11438;52.044;8.716;2023-04-15T07:16:38;13.77;;;9.10;;
22543;SDS011;11438;52.044;8.716;2023-04-15T07:19:04;11.77;;;8.32;;
22543;SDS011;11438;52.044;8.716;2023-04-15T07:21:29;11.93;;;8.52;;
22543;SDS011;11438;52.044;8.716;2023-04-15T07:23:56;12.77;;;8.68;;
22543;SDS011;11438;52.044;8.716;2023-04-15T07:26:22;12.30;;;7.95;;
22543;SDS011;11438;52.044;8.716;2023-04-15T07:28:48;12.88;;;8.15;;
22543;SDS011;11438;52.044;8.716;2023-04-15T07:31:14;12.48;;;7.50;;
22543;SDS011;11438;52.044;8.716;2023-04-15T07:33:40;11.23;;;7.68;;
22543;SDS011;11438;52.044;8.716;2023-04-15T07:36:06;12.57;;;7.47;;
22543;SDS011;11438;52.044;8.716;2023-04-15T07:38:31;13.32;;;8.02;;
22543;SDS011;11438;52.044;8.716;2023-04-15T07:40:57;11.02;;;7.22;;
22543;SDS011;11438;52.044;8.716;2023-04-15T07:43:23;12.43;;;7.82;;
22543;SDS011;11438;52.044;8.716;2023-04-15T07:45:48;12.13;;;7.93;;
22543;SDS011;11438;52.044;8.716;2023-04-15T07:48:14;13.95;;;8.60;;
22543;SDS011;11438;52.044;8.716;2023-04-15T07:50:39;16.38;;;8.73;;
22543;SDS011;11438;52.044;8.716;2023-04-15T07:53:05;13.85;;;8.45;;
22543;SDS011;11438;52.044;8.716;2023-04-15T07:55:31;14.90;;;9.25;;
22543;SDS011;11438;52.044;8.716;2023-04-15T07:57:56;15.95;;;8.10;;
22543;SDS011;11438;52.044;8.716;2023-04-15T08:00:22;14.32;;;8.57;;
22543;SDS011;11438;52.044;8.716;2023-04-15T08:02:48;14.70;;;8.45;;
22543;SDS011;11438;52.044;8.716;2023-04-15T08:05:13;13.68;;;7.90;;
22543;SDS011;11438;52.044;8.716;2023-04-15T08:07:39;14.27;;;8.48;;
22543;SDS011;11438;52.044;8.716;2023-04-15T08:10:05;14.95;;;8.07;;
22543;SDS011;11438;52.044;8.716;2023-04-15T08:12:31;13.85;;;7.55;;
22543;SDS011;11438;52.044;8.716;2023-04-15T08:14:56;10.70;;;7.13;;
22543;SDS011;11438;52.044;8.716;2023-04-15T08:17:25;12.18;;;7.13;;
22543;SDS011;11438;52.044;8.716;2023-04-15T08:19:50;11.65;;;7.22;;
22543;SDS011;11438;52.044;8.716;2023-04-15T08:22:17;10.40;;;6.78;;
22543;SDS011;11438;52.044;8.716;2023-04-15T08:24:43;10.65;;;6.97;;
22543;SDS011;11438;52.044;8.716;2023-04-15T08:27:08;11.25;;;5.95;;
22543;SDS011;11438;52.044;8.716;2023-04-15T08:29:34;11.27;;;6.53;;
22543;SDS011;11438;52.044;8.716;2023-04-15T08:31:59;11.07;;;6.72;;
22543;SDS011;11438;52.044;8.716;2023-04-15T08:34:25;9.18;;;5.78;;
22543;SDS011;11438;52.044;8.716;2023-04-15T08:36:51;10.27;;;6.57;;
22543;SDS011;11438;52.044;8.716;2023-04-15T08:39:17;9.57;;;6.50;;
22543;SDS011;11438;52.044;8.716;2023-04-15T08:41:46;8.70;;;5.63;;
22543;SDS011;11438;52.044;8.716;2023-04-15T08:44:16;8.57;;;6.00;;
22543;SDS011;11438;52.044;8.716;2023-04-15T08:46:42;9.13;;;6.10;;
22543;SDS011;11438;52.044;8.716;2023-04-15T08:49:09;8.30;;;5.53;;
22543;SDS011;11438;52.044;8.716;2023-04-15T08:51:37;9.00;;;5.82;;
22543;SDS011;11438;52.044;8.716;2023-04-15T08:54:07;8.07;;;5.82;;
22543;SDS011;11438;52.044;8.716;2023-04-15T08:56:33;8.77;;;5.75;;
22543;SDS011;11438;52.044;8.716;2023-04-15T08:58:59;8.18;;;5.70;;
22543;SDS011;11438;52.044;8.716;2023-04-15T09:01:25;10.00;;;5.85;;
22543;SDS011;11438;52.044;8.716;2023-04-15T09:03:51;8.23;;;5.25;;
22543;SDS011;11438;52.044;8.716;2023-04-15T09:06:22;8.50;;;5.75;;
22543;SDS011;11438;52.044;8.716;2023-04-15T09:08:49;8.55;;;5.60;;
22543;SDS011;11438;52.044;8.716;2023-04-15T09:11:15;7.30;;;5.18;;
22543;SDS011;11438;52.044;8.716;2023-04-15T09:13:42;7.30;;;4.88;;
22543;SDS011;11438;52.044;8.716;2023-04-15T09:16:08;6.97;;;4.80;;
22543;SDS011;11438;52.044;8.716;2023-04-15T09:18:34;7.50;;;4.93;;
22543;SDS011;11438;52.044;8.716;2023-04-15T09:21:04;7.07;;;5.10;;
22543;SDS011;11438;52.044;8.716;2023-04-15T09:23:30;8.02;;;5.13;;
22543;SDS011;11438;52.044;8.716;2023-04-15T09:25:56;7.57;;;5.22;;
22543;SDS011;11438;52.044;8.716;2023-04-15T09:28:22;7.50;;;4.50;;
22543;SDS011;11438;52.044;8.716;2023-04-15T09:30:50;6.13;;;4.50;;
22543;SDS011;11438;52.044;8.716;2023-04-15T09:33:19;7.13;;;4.15;;
22543;SDS011;11438;52.044;8.716;2023-04-15T09:35:55;5.30;;;4.28;;
22543;SDS011;11438;52.044;8.716;2023-04-15T09:38:24;5.97;;;4.28;;
22543;SDS011;11438;52.044;8.716;2023-04-15T09:40:50;5.13;;;3.75;;
22543;SDS011;11438;52.044;8.716;2023-04-15T09:43:16;4.85;;;3.72;;
22543;SDS011;11438;52.044;8.716;2023-04-15T09:45:49;5.88;;;4.20;;
22543;SDS011;11438;52.044;8.716;2023-04-15T09:48:23;4.53;;;3.75;;
22543;SDS011;11438;52.044;8.716;2023-04-15T09:50:51;5.25;;;3.95;;
22543;SDS011;11438;52.044;8.716;2023-04-15T09:53:21;4.90;;;3.95;;
22543;SDS011;11438;52.044;8.716;2023-04-15T09:55:49;5.45;;;4.13;;
22543;SDS011;11438;52.044;8.716;2023-04-15T09:58:17;5.88;;;3.97;;
22543;SDS011;11438;52.044;8.716;2023-04-15T10:00:45;5.53;;;4.05;;
22543;SDS011;11438;52.044;8.716;2023-04-15T10:03:13;5.28;;;3.92;;
22543;SDS011;11438;52.044;8.716;2023-04-15T10:05:49;5.63;;;4.10;;
22543;SDS011;11438;52.044;8.716;2023-04-15T10:08:17;6.20;;;4.30;;
22543;SDS011;11438;52.044;8.716;2023-04-15T10:10:44;6.28;;;4.35;;
22543;SDS011;11438;52.044;8.716;2023-04-15T10:13:11;5.72;;;4.32;;
22543;SDS011;11438;52.044;8.716;2023-04-15T10:15:38;4.80;;;3.97;;
22543;SDS011;11438;52.044;8.716;2023-04-15T10:18:06;4.95;;;3.55;;
22543;SDS011;11438;52.044;8.716;2023-04-15T10:20:33;5.15;;;4.10;;
22543;SDS011;11438;52.044;8.716;2023-04-15T10:23:00;5.53;;;4.22;;
22543;SDS011;11438;52.044;8.716;2023-04-15T10:25:26;6.07;;;3.72;;
22543;SDS011;11438;52.044;8.716;2023-04-15T10:27:53;4.82;;;3.63;;
22543;SDS011;11438;52.044;8.716;2023-04-15T10:30:20;4.15;;;3.25;;
22543;SDS011;11438;52.044;8.716;2023-04-15T10:32:46;4.78;;;3.67;;
22543;SDS011;11438;52.044;8.716;2023-04-15T10:35:13;4.63;;;3.38;;
22543;SDS011;11438;52.044;8.716;2023-04-15T10:37:40;4.55;;;3.30;;
22543;SDS011;11438;52.044;8.716;2023-04-15T10:42:55;4.25;;;3.20;;
22543;SDS011;11438;52.044;8.716;2023-04-15T10:45:24;5.07;;;3.50;;
22543;SDS011;11438;52.044;8.716;2023-04-15T10:47:55;4.63;;;3.47;;
22543;SDS011;11438;52.044;8.716;2023-04-15T10:50:21;5.88;;;3.55;;
22543;SDS011;11438;52.044;8.716;2023-04-15T10:52:49;4.22;;;3.35;;
22543;SDS011;11438;52.044;8.716;2023-04-15T10:55:20;4.85;;;3.58;;
22543;SDS011;11438;52.044;8.716;2023-04-15T10:57:58;4.57;;;3.75;;
22543;SDS011;11438;52.044;8.716;2023-04-15T11:00:27;4.35;;;3.55;;
22543;SDS011;11438;52.044;8.716;2023-04-15T11:02:54;4.20;;;3.22;;
22543;SDS011;11438;52.044;8.716;2023-04-15T11:08:03;4.32;;;3.47;;
22543;SDS011;11438;52.044;8.716;2023-04-15T11:12:59;4.80;;;3.38;;
22543;SDS011;11438;52.044;8.716;2023-04-15T11:15:38;4.45;;;3.20;;
22543;SDS011;11438;52.044;8.716;2023-04-15T11:20:41;6.30;;;3.28;;
22543;SDS011;11438;52.044;8.716;2023-04-15T11:23:11;3.90;;;2.97;;
22543;SDS011;11438;52.044;8.716;2023-04-15T11:25:38;3.75;;;3.13;;
22543;SDS011;11438;52.044;8.716;2023-04-15T11:28:03;4.00;;;3.28;;
22543;SDS011;11438;52.044;8.716;2023-04-15T11:30:34;4.63;;;3.30;;
22543;SDS011;11438;52.044;8.716;2023-04-15T11:33:02;5.00;;;3.35;;
22543;SDS011;11438;52.044;8.716;2023-04-15T11:35:29;4.88;;;3.10;;
22543;SDS011;11438;52.044;8.716;2023-04-15T11:37:55;3.88;;;2.72;;
22543;SDS011;11438;52.044;8.716;2023-04-15T11:40:21;3.85;;;2.85;;
22543;SDS011;11438;52.044;8.716;2023-04-15T11:43:07;3.22;;;2.70;;
22543;SDS011;11438;52.044;8.716;2023-04-15T11:45:33;3.35;;;2.30;;
22543;SDS011;11438;52.044;8.716;2023-04-15T11:50:32;4.18;;;2.47;;
22543;SDS011;11438;52.044;8.716;2023-04-15T11:52:59;3.33;;;2.85;;
22543;SDS011;11438;52.044;8.716;2023-04-15T11:55:27;3.67;;;2.70;;
22543;SDS011;11438;52.044;8.716;2023-04-15T11:58:08;2.58;;;2.30;;
22543;SDS011;11438;52.044;8.716;2023-04-15T12:00:47;3.13;;;2.40;;
22543;SDS011;11438;52.044;8.716;2023-04-15T12:11:19;2.85;;;2.35;;
22543;SDS011;11438;52.044;8.716;2023-04-15T12:13:46;3.40;;;2.40;;
22543;SDS011;11438;52.044;8.716;2023-04-15T12:16:15;2.25;;;1.90;;
22543;SDS011;11438;52.044;8.716;2023-04-15T12:18:43;3.88;;;2.13;;
22543;SDS011;11438;52.044;8.716;2023-04-15T12:21:10;2.28;;;1.95;;
22543;SDS011;11438;52.044;8.716;2023-04-15T12:23:39;2.00;;;1.80;;
22543;SDS011;11438;52.044;8.716;2023-04-15T12:26:13;2.25;;;1.70;;
22543;SDS011;11438;52.044;8.716;2023-04-15T12:28:39;2.88;;;1.77;;
22543;SDS011;11438;52.044;8.716;2023-04-15T12:31:11;2.30;;;1.80;;
22543;SDS011;11438;52.044;8.716;2023-04-15T12:33:37;2.05;;;1.58;;
22543;SDS011;11438;52.044;8.716;2023-04-15T12:36:03;3.13;;;1.83;;
22543;SDS011;11438;52.044;8.716;2023-04-15T12:38:29;2.17;;;1.52;;
22543;SDS011;11438;52.044;8.716;2023-04-15T12:40:56;2.90;;;1.90;;
22543;SDS011;11438;52.044;8.716;2023-04-15T12:43:22;1.90;;;1.55;;
22543;SDS011;11438;52.044;8.716;2023-04-15T12:45:47;3.63;;;1.80;;
22543;SDS011;11438;52.044;8.716;2023-04-15T12:48:13;1.95;;;1.70;;
22543;SDS011;11438;52.044;8.716;2023-04-15T12:50:38;2.85;;;1.63;;
22543;SDS011;11438;52.044;8.716;2023-04-15T12:53:04;2.55;;;2.00;;
22543;SDS011;11438;52.044;8.716;2023-04-15T12:55:30;1.98;;;1.65;;
22543;SDS011;11438;52.044;8.716;2023-04-15T12:57:55;2.25;;;1.70;;
22543;SDS011;11438;52.044;8.716;2023-04-15T13:00:21;2.22;;;1.88;;
22543;SDS011;11438;52.044;8.716;2023-04-15T13:02:47;2.83;;;1.98;;
22543;SDS011;11438;52.044;8.716;2023-04-15T13:05:13;2.67;;;1.73;;
22543;SDS011;11438;52.044;8.716;2023-04-15T13:07:39;2.58;;;1.77;;
22543;SDS011;11438;52.044;8.716;2023-04-15T13:10:05;3.97;;;2.03;;
22543;SDS011;11438;52.044;8.716;2023-04-15T13:12:31;2.22;;;1.85;;
22543;SDS011;11438;52.044;8.716;2023-04-15T13:15:00;2.47;;;1.83;;
22543;SDS011;11438;52.044;8.716;2023-04-15T13:17:26;4.03;;;2.00;;
22543;SDS011;11438;52.044;8.716;2023-04-15T13:19:51;2.60;;;2.25;;
22543;SDS011;11438;52.044;8.716;2023-04-15T13:22:17;3.10;;;2.13;;
22543;SDS011;11438;52.044;8.716;2023-04-15T13:24:42;3.00;;;2.53;;
22543;SDS011;11438;52.044;8.716;2023-04-15T13:27:08;3.78;;;2.70;;
22543;SDS011;11438;52.044;8.716;2023-04-15T13:29:33;3.83;;;2.70;;
22543;SDS011;11438;52.044;8.716;2023-04-15T13:31:59;3.80;;;3.03;;
22543;SDS011;11438;52.044;8.716;2023-04-15T13:34:25;3.90;;;3.25;;
22543;SDS011;11438;52.044;8.716;2023-04-15T13:36:50;3.67;;;3.08;;
22543;SDS011;11438;52.044;8.716;2023-04-15T13:39:16;4.85;;;3.30;;
22543;SDS011;11438;52.044;8.716;2023-04-15T13:41:41;5.03;;;3.78;;
22543;SDS011;11438;52.044;8.716;2023-04-15T13:44:07;5.88;;;3.88;;
22543;SDS011;11438;52.044;8.716;2023-04-15T13:46:33;5.47;;;3.97;;
22543;SDS011;11438;52.044;8.716;2023-04-15T13:48:58;6.05;;;3.67;;
22543;SDS011;11438;52.044;8.716;2023-04-15T13:51:24;5.78;;;3.70;;
22543;SDS011;11438;52.044;8.716;2023-04-15T13:53:50;5.30;;;3.92;;
22543;SDS011;11438;52.044;8.716;2023-04-15T13:56:16;5.68;;;4.25;;
22543;SDS011;11438;52.044;8.716;2023-04-15T13:58:42;5.18;;;3.92;;
22543;SDS011;11438;52.044;8.716;2023-04-15T14:01:07;5.25;;;4.03;;
22543;SDS011;11438;52.044;8.716;2023-04-15T14:03:33;5.00;;;3.67;;
22543;SDS011;11438;52.044;8.716;2023-04-15T14:05:59;4.95;;;3.40;;
22543;SDS011;11438;52.044;8.716;2023-04-15T14:08:25;6.32;;;3.65;;
22543;SDS011;11438;52.044;8.716;2023-04-15T14:10:50;5.53;;;3.88;;
22543;SDS011;11438;52.044;8.716;2023-04-15T14:13:16;5.30;;;3.85;;
22543;SDS011;11438;52.044;8.716;2023-04-15T14:15:43;5.28;;;3.85;;
22543;SDS011;11438;52.044;8.716;2023-04-15T14:18:09;4.35;;;3.33;;
22543;SDS011;11438;52.044;8.716;2023-04-15T14:20:34;6.32;;;3.75;;
22543;SDS011;11438;52.044;8.716;2023-04-15T14:23:00;4.88;;;3.60;;
22543;SDS011;11438;52.044;8.716;2023-04-15T14:27:51;5.90;;;3.72;;
22543;SDS011;11438;52.044;8.716;2023-04-15T14:30:16;6.75;;;3.88;;
22543;SDS011;11438;52.044;8.716;2023-04-15T14:32:42;5.57;;;3.58;;
22543;SDS011;11438;52.044;8.716;2023-04-15T14:35:07;6.38;;;3.88;;
22543;SDS011;11438;52.044;8.716;2023-04-15T14:37:33;4.95;;;3.78;;
22543;SDS011;11438;52.044;8.716;2023-04-15T14:39:58;6.22;;;3.85;;
22543;SDS011;11438;52.044;8.716;2023-04-15T14:42:24;5.88;;;4.38;;
22543;SDS011;11438;52.044;8.716;2023-04-15T14:44:49;5.47;;;3.75;;
22543;SDS011;11438;52.044;8.716;2023-04-15T14:47:15;6.38;;;3.97;;
22543;SDS011;11438;52.044;8.716;2023-04-15T14:49:41;4.72;;;3.60;;
22543;SDS011;11438;52.044;8.716;2023-04-15T14:52:06;8.10;;;4.20;;
22543;SDS011;11438;52.044;8.716;2023-04-15T14:54:32;6.68;;;4.68;;
22543;SDS011;11438;52.044;8.716;2023-04-15T14:56:57;6.13;;;4.15;;
22543;SDS011;11438;52.044;8.716;2023-04-15T14:59:23;6.97;;;4.82;;
22543;SDS011;11438;52.044;8.716;2023-04-15T15:01:48;5.97;;;4.45;;
22543;SDS011;11438;52.044;8.716;2023-04-15T15:04:14;6.95;;;5.07;;